sensor_id;sensor_type;location;lat;lon;timestamp;pressure;altitude;pressure_sealevel;temperature;humidity
67842;BME280;54642;59.126;37.876;2022-12-17T00:01:49;101185.50;;;-4.34;74.93
67842;BME280;54642;59.126;37.876;2022-12-17T00:04:33;101178.66;;;-4.35;74.61
67842;BME280;54642;59.126;37.876;2022-12-17T00:07:18;101189.00;;;-4.32;74.91
67842;BME280;54642;59.126;37.876;2022-12-17T00:10:03;101181.41;;;-4.32;74.79
67842;BME280;54642;59.126;37.876;2022-12-17T00:12:47;101188.69;;;-4.25;74.88
67842;BME280;54642;59.126;37.876;2022-12-17T00:15:32;101188.34;;;-4.29;74.84
67842;BME280;54642;59.126;37.876;2022-12-17T00:18:16;101184.69;;;-4.33;74.72
67842;BME280;54642;59.126;37.876;2022-12-17T00:21:03;101189.13;;;-4.30;74.72
67842;BME280;54642;59.126;37.876;2022-12-17T00:23:48;101187.69;;;-4.27;74.66
67842;BME280;54642;59.126;37.876;2022-12-17T00:26:35;101199.03;;;-4.22;74.52
67842;BME280;54642;59.126;37.876;2022-12-17T00:29:19;101182.41;;;-4.30;74.94
67842;BME280;54642;59.126;37.876;2022-12-17T00:32:04;101185.47;;;-4.22;74.90
67842;BME280;54642;59.126;37.876;2022-12-17T00:34:50;101197.84;;;-4.15;74.71
67842;BME280;54642;59.126;37.876;2022-12-17T00:37:34;101190.88;;;-4.17;74.79
67842;BME280;54642;59.126;37.876;2022-12-17T00:40:20;101209.69;;;-4.26;74.79
67842;BME280;54642;59.126;37.876;2022-12-17T00:43:10;101194.41;;;-4.27;74.70
67842;BME280;54642;59.126;37.876;2022-12-17T00:45:55;101180.97;;;-4.38;74.99
67842;BME280;54642;59.126;37.876;2022-12-17T00:48:39;101192.75;;;-4.27;74.93
67842;BME280;54642;59.126;37.876;2022-12-17T00:51:24;101140.69;;;-4.58;74.93
67842;BME280;54642;59.126;37.876;2022-12-17T00:54:09;101170.94;;;-4.36;75.02
67842;BME280;54642;59.126;37.876;2022-12-17T00:56:54;101184.50;;;-4.24;75.08
67842;BME280;54642;59.126;37.876;2022-12-17T00:59:40;101195.84;;;-4.19;75.09
67842;BME280;54642;59.126;37.876;2022-12-17T01:03:11;101189.34;;;-4.27;74.89
67842;BME280;54642;59.126;37.876;2022-12-17T01:06:00;101170.06;;;-4.37;74.79
67842;BME280;54642;59.126;37.876;2022-12-17T01:08:45;101170.88;;;-4.38;74.79
67842;BME280;54642;59.126;37.876;2022-12-17T01:11:29;101170.19;;;-4.35;74.83
67842;BME280;54642;59.126;37.876;2022-12-17T01:14:13;101191.44;;;-4.22;75.01
67842;BME280;54642;59.126;37.876;2022-12-17T01:16:58;101205.84;;;-4.21;75.10
67842;BME280;54642;59.126;37.876;2022-12-17T01:19:42;101186.16;;;-4.25;75.06
67842;BME280;54642;59.126;37.876;2022-12-17T01:22:27;101188.13;;;-4.21;75.21
67842;BME280;54642;59.126;37.876;2022-12-17T01:25:11;101197.84;;;-4.15;74.99
67842;BME280;54642;59.126;37.876;2022-12-17T01:27:57;101190.88;;;-4.17;74.88
67842;BME280;54642;59.126;37.876;2022-12-17T01:30:41;101123.22;;;-4.55;74.75
67842;BME280;54642;59.126;37.876;2022-12-17T01:33:25;101185.81;;;-4.17;74.69
67842;BME280;54642;59.126;37.876;2022-12-17T01:36:10;101184.84;;;-4.19;74.83
67842;BME280;54642;59.126;37.876;2022-12-17T01:38:55;101194.97;;;-4.19;74.82
67842;BME280;54642;59.126;37.876;2022-12-17T01:41:39;101188.13;;;-4.21;74.97
67842;BME280;54642;59.126;37.876;2022-12-17T01:44:49;101192.09;;;-4.12;74.85
67842;BME280;54642;59.126;37.876;2022-12-17T01:47:51;101206.44;;;-4.13;74.80
67842;BME280;54642;59.126;37.876;2022-12-17T01:50:44;101189.03;;;-4.20;75.05
67842;BME280;54642;59.126;37.876;2022-12-17T01:53:39;101186.69;;;-4.17;74.73
67842;BME280;54642;59.126;37.876;2022-12-17T01:56:24;101199.69;;;-4.12;74.89
67842;BME280;54642;59.126;37.876;2022-12-17T01:59:09;101197.16;;;-4.12;74.87
67842;BME280;54642;59.126;37.876;2022-12-17T02:01:55;101189.91;;;-4.19;74.98
67842;BME280;54642;59.126;37.876;2022-12-17T02:04:39;101200.78;;;-4.21;74.99
67842;BME280;54642;59.126;37.876;2022-12-17T02:07:36;101198.47;;;-4.17;74.98
67842;BME280;54642;59.126;37.876;2022-12-17T02:14:06;101188.44;;;-4.28;74.82
67842;BME280;54642;59.126;37.876;2022-12-17T02:17:00;101194.41;;;-4.27;74.77
67842;BME280;54642;59.126;37.876;2022-12-17T02:20:08;101178.78;;;-4.33;74.70
67842;BME280;54642;59.126;37.876;2022-12-17T02:26:26;101188.34;;;-4.29;74.74
67842;BME280;54642;59.126;37.876;2022-12-17T02:29:12;101177.78;;;-4.35;74.71
67842;BME280;54642;59.126;37.876;2022-12-17T02:31:57;101165.56;;;-4.41;74.79
67842;BME280;54642;59.126;37.876;2022-12-17T02:34:43;101183.28;;;-4.29;74.99
67842;BME280;54642;59.126;37.876;2022-12-17T02:37:29;101176.47;;;-4.30;74.76
67842;BME280;54642;59.126;37.876;2022-12-17T02:40:13;101191.22;;;-4.25;74.91
67842;BME280;54642;59.126;37.876;2022-12-17T02:42:57;101184.50;;;-4.24;74.66
67842;BME280;54642;59.126;37.876;2022-12-17T02:45:43;101172.03;;;-4.33;74.73
67842;BME280;54642;59.126;37.876;2022-12-17T02:48:28;101178.22;;;-4.29;74.61
67842;BME280;54642;59.126;37.876;2022-12-17T02:51:13;101193.00;;;-4.24;74.55
67842;BME280;54642;59.126;37.876;2022-12-17T02:54:01;101163.47;;;-4.35;74.60
67842;BME280;54642;59.126;37.876;2022-12-17T02:56:46;101159.94;;;-4.37;74.43
67842;BME280;54642;59.126;37.876;2022-12-17T02:59:30;101146.09;;;-4.42;74.59
67842;BME280;54642;59.126;37.876;2022-12-17T03:02:17;101190.00;;;-4.30;74.38
67842;BME280;54642;59.126;37.876;2022-12-17T03:05:02;101151.59;;;-4.48;74.22
67842;BME280;54642;59.126;37.876;2022-12-17T03:07:49;101180.66;;;-4.31;74.33
67842;BME280;54642;59.126;37.876;2022-12-17T03:10:33;101143.75;;;-4.63;74.29
67842;BME280;54642;59.126;37.876;2022-12-17T03:13:27;101176.25;;;-4.33;74.49
67842;BME280;54642;59.126;37.876;2022-12-17T03:16:14;101166.00;;;-4.35;74.49
67842;BME280;54642;59.126;37.876;2022-12-17T03:19:01;101143.88;;;-4.49;74.41
67842;BME280;54642;59.126;37.876;2022-12-17T03:21:46;101171.28;;;-4.32;74.49
67842;BME280;54642;59.126;37.876;2022-12-17T03:24:31;101156.56;;;-4.37;74.41
67842;BME280;54642;59.126;37.876;2022-12-17T03:27:15;101149.41;;;-4.43;74.74
67842;BME280;54642;59.126;37.876;2022-12-17T03:30:00;101145.41;;;-4.51;74.37
67842;BME280;54642;59.126;37.876;2022-12-17T03:32:44;101136.09;;;-4.52;74.37
67842;BME280;54642;59.126;37.876;2022-12-17T03:35:28;101157.75;;;-4.44;74.67
67842;BME280;54642;59.126;37.876;2022-12-17T03:38:13;101166.56;;;-4.39;74.49
67842;BME280;54642;59.126;37.876;2022-12-17T03:40:57;101153.34;;;-4.47;74.47
67842;BME280;54642;59.126;37.876;2022-12-17T03:43:41;101175.56;;;-4.43;74.76
67842;BME280;54642;59.126;37.876;2022-12-17T03:46:26;101169.19;;;-4.37;74.61
67842;BME280;54642;59.126;37.876;2022-12-17T03:49:10;101163.78;;;-4.42;74.45
67842;BME280;54642;59.126;37.876;2022-12-17T03:52:12;101165.09;;;-4.47;74.42
67842;BME280;54642;59.126;37.876;2022-12-17T03:54:56;101169.28;;;-4.48;74.27
67842;BME280;54642;59.126;37.876;2022-12-17T03:57:40;101166.75;;;-4.48;74.49
67842;BME280;54642;59.126;37.876;2022-12-17T04:00:25;101173.00;;;-4.54;74.42
67842;BME280;54642;59.126;37.876;2022-12-17T04:03:09;101181.31;;;-4.45;74.27
67842;BME280;54642;59.126;37.876;2022-12-17T04:05:55;101175.22;;;-4.47;74.11
67842;BME280;54642;59.126;37.876;2022-12-17T04:08:39;101169.97;;;-4.50;74.25
67842;BME280;54642;59.126;37.876;2022-12-17T04:11:24;101179.09;;;-4.52;74.24
67842;BME280;54642;59.126;37.876;2022-12-17T04:14:08;101144.84;;;-4.71;74.46
67842;BME280;54642;59.126;37.876;2022-12-17T04:16:52;101139.03;;;-4.70;74.53
67842;BME280;54642;59.126;37.876;2022-12-17T04:19:37;101122.72;;;-4.85;74.37
67842;BME280;54642;59.126;37.876;2022-12-17T04:22:21;101164.22;;;-4.60;74.54
67842;BME280;54642;59.126;37.876;2022-12-17T04:25:05;101161.47;;;-4.63;74.39
67842;BME280;54642;59.126;37.876;2022-12-17T04:27:50;101162.22;;;-4.64;74.53
67842;BME280;54642;59.126;37.876;2022-12-17T04:30:37;101159.94;;;-4.61;74.85
67842;BME280;54642;59.126;37.876;2022-12-17T04:33:21;101171.91;;;-4.58;74.95
67842;BME280;54642;59.126;37.876;2022-12-17T04:36:05;101175.34;;;-4.57;74.56
67842;BME280;54642;59.126;37.876;2022-12-17T04:38:49;101149.38;;;-4.67;74.43
67842;BME280;54642;59.126;37.876;2022-12-17T04:41:34;101186.38;;;-4.45;74.49
67842;BME280;54642;59.126;37.876;2022-12-17T04:44:18;101159.50;;;-4.67;74.09
67842;BME280;54642;59.126;37.876;2022-12-17T04:47:06;101189.66;;;-4.46;74.23
67842;BME280;54642;59.126;37.876;2022-12-17T04:49:50;101185.25;;;-4.49;74.37
67842;BME280;54642;59.126;37.876;2022-12-17T04:53:02;101181.06;;;-4.48;74.26
67842;BME280;54642;59.126;37.876;2022-12-17T04:55:49;101187.44;;;-4.53;74.34
67842;BME280;54642;59.126;37.876;2022-12-17T04:58:34;101188.44;;;-4.51;74.30
67842;BME280;54642;59.126;37.876;2022-12-17T05:01:19;101182.38;;;-4.53;74.47
67842;BME280;54642;59.126;37.876;2022-12-17T05:04:03;101179.63;;;-4.56;74.39
67842;BME280;54642;59.126;37.876;2022-12-17T05:06:48;101191.75;;;-4.52;74.44
67842;BME280;54642;59.126;37.876;2022-12-17T05:09:32;101187.44;;;-4.53;74.35
67842;BME280;54642;59.126;37.876;2022-12-17T05:12:16;101184.69;;;-4.56;74.45
67842;BME280;54642;59.126;37.876;2022-12-17T05:15:00;101187.00;;;-4.60;74.43
67842;BME280;54642;59.126;37.876;2022-12-17T05:17:45;101191.16;;;-4.60;74.45
67842;BME280;54642;59.126;37.876;2022-12-17T05:20:29;101193.69;;;-4.60;74.67
67842;BME280;54642;59.126;37.876;2022-12-17T05:23:13;101161.88;;;-4.80;74.55
67842;BME280;54642;59.126;37.876;2022-12-17T05:28:48;101190.47;;;-4.69;73.93
67842;BME280;54642;59.126;37.876;2022-12-17T05:31:32;101186.84;;;-4.73;74.39
67842;BME280;54642;59.126;37.876;2022-12-17T05:34:17;101193.78;;;-4.70;74.45
67842;BME280;54642;59.126;37.876;2022-12-17T05:37:01;101203.78;;;-4.72;74.49
67842;BME280;54642;59.126;37.876;2022-12-17T05:39:45;101175.06;;;-4.84;74.73
67842;BME280;54642;59.126;37.876;2022-12-17T05:42:30;101170.13;;;-4.83;74.64
67842;BME280;54642;59.126;37.876;2022-12-17T05:45:14;101189.59;;;-4.70;74.70
67842;BME280;54642;59.126;37.876;2022-12-17T05:47:58;101196.53;;;-4.67;74.52
67842;BME280;54642;59.126;37.876;2022-12-17T05:50:48;101197.75;;;-4.62;74.55
67842;BME280;54642;59.126;37.876;2022-12-17T05:53:33;101207.25;;;-4.60;74.72
67842;BME280;54642;59.126;37.876;2022-12-17T05:56:18;101173.44;;;-4.72;74.55
67842;BME280;54642;59.126;37.876;2022-12-17T05:59:03;101196.44;;;-4.57;74.73
67842;BME280;54642;59.126;37.876;2022-12-17T06:01:48;101194.91;;;-4.55;74.57
67842;BME280;54642;59.126;37.876;2022-12-17T06:04:36;101211.75;;;-4.55;74.54
67842;BME280;54642;59.126;37.876;2022-12-17T06:07:20;101203.16;;;-4.57;74.39
67842;BME280;54642;59.126;37.876;2022-12-17T06:10:05;101136.97;;;-4.98;74.39
67842;BME280;54642;59.126;37.876;2022-12-17T06:12:56;101208.53;;;-4.53;74.23
67842;BME280;54642;59.126;37.876;2022-12-17T06:15:41;101204.91;;;-4.56;74.64
67842;BME280;54642;59.126;37.876;2022-12-17T06:18:25;101208.13;;;-4.47;74.42
67842;BME280;54642;59.126;37.876;2022-12-17T06:21:09;101208.91;;;-4.48;74.37
67842;BME280;54642;59.126;37.876;2022-12-17T06:23:56;101206.38;;;-4.48;74.38
67842;BME280;54642;59.126;37.876;2022-12-17T06:26:42;101215.69;;;-4.47;74.47
67842;BME280;54642;59.126;37.876;2022-12-17T06:29:27;101181.34;;;-4.67;74.63
67842;BME280;54642;59.126;37.876;2022-12-17T06:32:11;101224.09;;;-4.48;74.60
67842;BME280;54642;59.126;37.876;2022-12-17T06:34:55;101162.59;;;-4.93;74.13
67842;BME280;54642;59.126;37.876;2022-12-17T06:37:39;101225.63;;;-4.50;74.62
67842;BME280;54642;59.126;37.876;2022-12-17T06:40:24;101223.09;;;-4.50;74.61
67842;BME280;54642;59.126;37.876;2022-12-17T06:43:08;101232.97;;;-4.53;74.37
67842;BME280;54642;59.126;37.876;2022-12-17T06:45:56;101235.16;;;-4.58;74.35
67842;BME280;54642;59.126;37.876;2022-12-17T06:48:44;101243.34;;;-4.50;74.41
67842;BME280;54642;59.126;37.876;2022-12-17T06:51:28;101236.50;;;-4.51;74.45
67842;BME280;54642;59.126;37.876;2022-12-17T06:54:12;101244.56;;;-4.45;74.39
67842;BME280;54642;59.126;37.876;2022-12-17T06:56:57;101244.56;;;-4.45;74.13
67842;BME280;54642;59.126;37.876;2022-12-17T06:59:42;101238.59;;;-4.46;74.39
67842;BME280;54642;59.126;37.876;2022-12-17T07:02:26;101254.00;;;-4.43;74.26
67842;BME280;54642;59.126;37.876;2022-12-17T07:05:11;101256.31;;;-4.46;74.21
67842;BME280;54642;59.126;37.876;2022-12-17T07:07:59;101249.16;;;-4.51;74.08
67842;BME280;54642;59.126;37.876;2022-12-17T07:10:44;101253.44;;;-4.50;74.40
67842;BME280;54642;59.126;37.876;2022-12-17T07:13:29;101243.22;;;-4.52;74.18
67842;BME280;54642;59.126;37.876;2022-12-17T07:16:13;101178.34;;;-4.85;74.13
67842;BME280;54642;59.126;37.876;2022-12-17T07:18:57;101244.31;;;-4.48;74.07
67842;BME280;54642;59.126;37.876;2022-12-17T07:21:42;101234.94;;;-4.49;74.22
67842;BME280;54642;59.126;37.876;2022-12-17T07:24:27;101250.38;;;-4.46;74.15
67842;BME280;54642;59.126;37.876;2022-12-17T07:27:11;101238.16;;;-4.52;74.07
67842;BME280;54642;59.126;37.876;2022-12-17T07:29:55;101240.81;;;-4.50;74.27
67842;BME280;54642;59.126;37.876;2022-12-17T07:32:40;101232.75;;;-4.56;74.24
67842;BME280;54642;59.126;37.876;2022-12-17T07:35:24;101253.25;;;-4.42;73.91
67842;BME280;54642;59.126;37.876;2022-12-17T07:38:12;101243.78;;;-4.44;74.25
67842;BME280;54642;59.126;37.876;2022-12-17T07:40:58;101258.41;;;-4.40;74.16
67842;BME280;54642;59.126;37.876;2022-12-17T07:43:43;101250.25;;;-4.48;74.13
67842;BME280;54642;59.126;37.876;2022-12-17T07:46:28;101255.75;;;-4.53;74.50
67842;BME280;54642;59.126;37.876;2022-12-17T07:49:12;101257.28;;;-4.55;74.25
67842;BME280;54642;59.126;37.876;2022-12-17T07:51:56;101246.16;;;-4.57;74.50
67842;BME280;54642;59.126;37.876;2022-12-17T07:54:40;101248.16;;;-4.53;74.62
67842;BME280;54642;59.126;37.876;2022-12-17T07:57:25;101220.06;;;-4.68;74.63
67842;BME280;54642;59.126;37.876;2022-12-17T08:00:10;101244.41;;;-4.58;74.97
67842;BME280;54642;59.126;37.876;2022-12-17T08:02:56;101258.63;;;-4.49;74.66
67842;BME280;54642;59.126;37.876;2022-12-17T08:05:40;101247.91;;;-4.56;74.60
67842;BME280;54642;59.126;37.876;2022-12-17T08:08:25;101225.00;;;-4.70;74.63
67842;BME280;54642;59.126;37.876;2022-12-17T08:11:09;101245.50;;;-4.55;74.35
67842;BME280;54642;59.126;37.876;2022-12-17T08:13:54;101248.69;;;-4.57;74.45
67842;BME280;54642;59.126;37.876;2022-12-17T08:16:38;101262.91;;;-4.48;74.62
67842;BME280;54642;59.126;37.876;2022-12-17T08:19:22;101259.38;;;-4.50;74.49
67842;BME280;54642;59.126;37.876;2022-12-17T08:22:10;101250.00;;;-4.51;74.52
67842;BME280;54642;59.126;37.876;2022-12-17T08:24:54;101248.72;;;-4.46;74.37
67842;BME280;54642;59.126;37.876;2022-12-17T08:27:38;101247.28;;;-4.42;74.26
67842;BME280;54642;59.126;37.876;2022-12-17T08:30:23;101227.25;;;-4.51;74.05
67842;BME280;54642;59.126;37.876;2022-12-17T08:33:21;101250.19;;;-4.37;74.16
67842;BME280;54642;59.126;37.876;2022-12-17T08:36:08;101248.72;;;-4.46;74.13
67842;BME280;54642;59.126;37.876;2022-12-17T08:38:52;101243.84;;;-4.54;74.33
67842;BME280;54642;59.126;37.876;2022-12-17T08:41:47;101247.41;;;-4.52;74.50
67842;BME280;54642;59.126;37.876;2022-12-17T08:44:31;101231.75;;;-4.58;74.43
67842;BME280;54642;59.126;37.876;2022-12-17T08:47:16;101237.84;;;-4.45;74.29
67842;BME280;54642;59.126;37.876;2022-12-17T08:50:02;101241.91;;;-4.47;74.34
67842;BME280;54642;59.126;37.876;2022-12-17T08:52:46;101238.72;;;-4.44;74.27
67842;BME280;54642;59.126;37.876;2022-12-17T08:55:31;101237.38;;;-4.51;74.45
67842;BME280;54642;59.126;37.876;2022-12-17T08:58:15;101245.56;;;-4.43;74.65
67842;BME280;54642;59.126;37.876;2022-12-17T09:01:02;101239.50;;;-4.45;74.73
67842;BME280;54642;59.126;37.876;2022-12-17T09:03:47;101229.44;;;-4.55;74.59
67842;BME280;54642;59.126;37.876;2022-12-17T09:06:31;101238.03;;;-4.53;74.71
67842;BME280;54642;59.126;37.876;2022-12-17T09:09:16;101247.59;;;-4.49;74.46
67842;BME280;54642;59.126;37.876;2022-12-17T09:12:08;101244.56;;;-4.45;74.63
67842;BME280;54642;59.126;37.876;2022-12-17T09:14:55;101252.53;;;-4.51;74.63
67842;BME280;54642;59.126;37.876;2022-12-17T09:17:46;101221.38;;;-4.62;74.76
67842;BME280;54642;59.126;37.876;2022-12-17T09:20:31;101234.63;;;-4.42;74.47
67842;BME280;54642;59.126;37.876;2022-12-17T09:23:18;101216.72;;;-4.45;74.44
67842;BME280;54642;59.126;37.876;2022-12-17T09:26:05;101236.75;;;-4.36;74.47
67842;BME280;54642;59.126;37.876;2022-12-17T09:28:50;101168.16;;;-4.75;74.40
67842;BME280;54642;59.126;37.876;2022-12-17T09:31:39;101221.78;;;-4.45;74.13
67842;BME280;54642;59.126;37.876;2022-12-17T09:34:27;101220.44;;;-4.40;74.32
67842;BME280;54642;59.126;37.876;2022-12-17T09:37:14;101229.06;;;-4.26;74.34
67842;BME280;54642;59.126;37.876;2022-12-17T09:40:02;101227.31;;;-4.15;74.50
67842;BME280;54642;59.126;37.876;2022-12-17T09:43:07;101207.06;;;-4.15;74.38
67842;BME280;54642;59.126;37.876;2022-12-17T09:46:04;101183.50;;;-4.38;74.42
67842;BME280;54642;59.126;37.876;2022-12-17T09:49:19;101207.72;;;-4.30;74.40
67842;BME280;54642;59.126;37.876;2022-12-17T09:52:21;101215.84;;;-4.34;74.66
67842;BME280;54642;59.126;37.876;2022-12-17T09:55:21;101216.19;;;-4.41;74.83
67842;BME280;54642;59.126;37.876;2022-12-17T09:58:22;101181.03;;;-4.72;74.71
67842;BME280;54642;59.126;37.876;2022-12-17T10:01:33;101205.88;;;-4.66;74.68
67842;BME280;54642;59.126;37.876;2022-12-17T10:07:14;101210.91;;;-4.78;74.97
67842;BME280;54642;59.126;37.876;2022-12-17T10:10:05;101162.78;;;-5.02;75.04
67842;BME280;54642;59.126;37.876;2022-12-17T10:12:53;101195.59;;;-4.80;74.81
67842;BME280;54642;59.126;37.876;2022-12-17T10:15:42;101176.03;;;-4.82;75.06
67842;BME280;54642;59.126;37.876;2022-12-17T10:18:28;101198.09;;;-4.57;74.86
67842;BME280;54642;59.126;37.876;2022-12-17T10:21:17;101174.22;;;-4.61;74.87
67842;BME280;54642;59.126;37.876;2022-12-17T10:24:06;101186.88;;;-4.49;75.05
67842;BME280;54642;59.126;37.876;2022-12-17T10:26:50;101181.38;;;-4.44;74.71
67842;BME280;54642;59.126;37.876;2022-12-17T10:29:34;101193.72;;;-4.48;74.68
67842;BME280;54642;59.126;37.876;2022-12-17T10:32:21;101196.22;;;-4.60;74.55
67842;BME280;54642;59.126;37.876;2022-12-17T10:35:08;101207.00;;;-4.63;74.97
67842;BME280;54642;59.126;37.876;2022-12-17T10:37:55;101129.19;;;-5.01;74.89
67842;BME280;54642;59.126;37.876;2022-12-17T10:40:42;101165.63;;;-4.75;74.91
67842;BME280;54642;59.126;37.876;2022-12-17T10:43:30;101187.31;;;-4.67;74.66
67842;BME280;54642;59.126;37.876;2022-12-17T10:49:13;101191.97;;;-4.83;74.61
67842;BME280;54642;59.126;37.876;2022-12-17T10:52:04;101159.84;;;-4.96;74.87
67842;BME280;54642;59.126;37.876;2022-12-17T10:55:25;101184.84;;;-4.77;75.03
67842;BME280;54642;59.126;37.876;2022-12-17T10:58:15;101178.25;;;-4.75;74.96
67842;BME280;54642;59.126;37.876;2022-12-17T11:01:01;101171.22;;;-4.79;75.00
67842;BME280;54642;59.126;37.876;2022-12-17T11:03:52;101187.31;;;-4.67;75.02
67842;BME280;54642;59.126;37.876;2022-12-17T11:06:45;101165.06;;;-4.71;74.86
67842;BME280;54642;59.126;37.876;2022-12-17T11:09:48;101155.94;;;-4.69;74.98
67842;BME280;54642;59.126;37.876;2022-12-17T11:12:55;101128.56;;;-4.86;75.12
67842;BME280;54642;59.126;37.876;2022-12-17T11:15:57;101141.41;;;-4.83;75.01
67842;BME280;54642;59.126;37.876;2022-12-17T11:22:00;101147.38;;;-4.71;75.00
67842;BME280;54642;59.126;37.876;2022-12-17T11:24:56;101157.06;;;-4.65;74.95
67842;BME280;54642;59.126;37.876;2022-12-17T11:27:52;101118.00;;;-4.81;74.92
67842;BME280;54642;59.126;37.876;2022-12-17T11:30:55;101157.94;;;-4.65;74.90
67842;BME280;54642;59.126;37.876;2022-12-17T11:34:26;101166.41;;;-4.64;74.85
67842;BME280;54642;59.126;37.876;2022-12-17T11:37:19;101161.56;;;-4.73;75.06
67842;BME280;54642;59.126;37.876;2022-12-17T11:58:40;101170.31;;;-4.80;74.47
67842;BME280;54642;59.126;37.876;2022-12-17T12:08:02;101126.53;;;-5.02;74.42
67842;BME280;54642;59.126;37.876;2022-12-17T12:11:33;101149.22;;;-4.80;74.48
67842;BME280;54642;59.126;37.876;2022-12-17T12:15:19;101156.13;;;-4.78;74.54
67842;BME280;54642;59.126;37.876;2022-12-17T12:17:49;101128.19;;;-4.91;74.78
67842;BME280;54642;59.126;37.876;2022-12-17T12:21:09;101149.34;;;-4.79;74.52
67842;BME280;54642;59.126;37.876;2022-12-17T12:30:22;101143.72;;;-4.86;74.49
67842;BME280;54642;59.126;37.876;2022-12-17T12:33:35;101146.88;;;-4.89;74.61
67842;BME280;54642;59.126;37.876;2022-12-17T12:36:24;101139.41;;;-4.87;74.75
67842;BME280;54642;59.126;37.876;2022-12-17T12:39:12;101140.66;;;-4.82;74.59
67842;BME280;54642;59.126;37.876;2022-12-17T12:45:29;101128.91;;;-4.70;74.78
67842;BME280;54642;59.126;37.876;2022-12-17T12:51:18;101126.91;;;-4.74;74.66
67842;BME280;54642;59.126;37.876;2022-12-17T13:00:21;101131.31;;;-4.71;74.68
67842;BME280;54642;59.126;37.876;2022-12-17T13:03:51;101130.97;;;-4.76;74.50
67842;BME280;54642;59.126;37.876;2022-12-17T13:11:43;101141.63;;;-4.80;74.67
67842;BME280;54642;59.126;37.876;2022-12-17T13:17:02;101137.25;;;-4.83;74.74
67842;BME280;54642;59.126;37.876;2022-12-17T13:19:40;101132.06;;;-4.84;74.77
67842;BME280;54642;59.126;37.876;2022-12-17T13:25:08;101119.94;;;-4.88;74.70
67842;BME280;54642;59.126;37.876;2022-12-17T13:27:39;101131.09;;;-4.86;74.98
67842;BME280;54642;59.126;37.876;2022-12-17T13:41:12;101120.25;;;-4.95;74.98
67842;BME280;54642;59.126;37.876;2022-12-17T13:43:47;101049.63;;;-5.40;75.07
67842;BME280;54642;59.126;37.876;2022-12-17T13:46:41;101117.41;;;-5.00;75.16
67842;BME280;54642;59.126;37.876;2022-12-17T13:52:15;101109.59;;;-5.03;75.03
67842;BME280;54642;59.126;37.876;2022-12-17T13:54:42;101111.00;;;-5.07;75.02
67842;BME280;54642;59.126;37.876;2022-12-17T13:57:20;101098.69;;;-5.14;75.02
67842;BME280;54642;59.126;37.876;2022-12-17T13:59:55;101078.66;;;-5.23;75.16
67842;BME280;54642;59.126;37.876;2022-12-17T14:02:32;101101.34;;;-5.12;75.23
67842;BME280;54642;59.126;37.876;2022-12-17T14:05:01;101098.06;;;-5.11;75.19
67842;BME280;54642;59.126;37.876;2022-12-17T14:07:33;101099.66;;;-5.12;75.17
67842;BME280;54642;59.126;37.876;2022-12-17T14:10:01;101090.56;;;-5.10;75.19
67842;BME280;54642;59.126;37.876;2022-12-17T14:12:28;101089.50;;;-5.02;75.23
67842;BME280;54642;59.126;37.876;2022-12-17T14:17:49;101044.94;;;-5.23;75.10
67842;BME280;54642;59.126;37.876;2022-12-17T14:20:20;101076.09;;;-5.01;75.31
67842;BME280;54642;59.126;37.876;2022-12-17T14:22:57;101013.03;;;-5.33;75.36
67842;BME280;54642;59.126;37.876;2022-12-17T14:25:35;101036.06;;;-5.18;75.14
67842;BME280;54642;59.126;37.876;2022-12-17T14:28:18;101070.81;;;-5.04;75.13
67842;BME280;54642;59.126;37.876;2022-12-17T14:30:45;101047.91;;;-5.17;75.00
67842;BME280;54642;59.126;37.876;2022-12-17T14:33:30;101065.97;;;-5.01;75.34
67842;BME280;54642;59.126;37.876;2022-12-17T14:35:58;101061.91;;;-4.99;75.20
67842;BME280;54642;59.126;37.876;2022-12-17T14:38:26;101062.78;;;-4.98;75.13
67842;BME280;54642;59.126;37.876;2022-12-17T14:40:52;101042.53;;;-5.10;75.07
67842;BME280;54642;59.126;37.876;2022-12-17T14:43:25;101066.63;;;-5.03;75.17
67842;BME280;54642;59.126;37.876;2022-12-17T14:45:58;101063.84;;;-5.06;75.11
67842;BME280;54642;59.126;37.876;2022-12-17T14:48:44;101058.25;;;-5.14;75.28
67842;BME280;54642;59.126;37.876;2022-12-17T14:51:40;101040.44;;;-5.15;75.26
67842;BME280;54642;59.126;37.876;2022-12-17T14:54:20;101062.00;;;-5.09;75.16
67842;BME280;54642;59.126;37.876;2022-12-17T14:56:55;101054.97;;;-5.01;75.28
67842;BME280;54642;59.126;37.876;2022-12-17T14:59:35;101056.88;;;-4.99;75.31
67842;BME280;54642;59.126;37.876;2022-12-17T15:04:31;101055.09;;;-5.00;75.23
67842;BME280;54642;59.126;37.876;2022-12-17T15:06:57;100972.25;;;-5.49;75.23
67842;BME280;54642;59.126;37.876;2022-12-17T15:09:24;101055.88;;;-5.01;75.28
67842;BME280;54642;59.126;37.876;2022-12-17T15:11:49;101062.34;;;-4.92;75.14
67842;BME280;54642;59.126;37.876;2022-12-17T15:14:15;101069.94;;;-4.92;75.14
67842;BME280;54642;59.126;37.876;2022-12-17T15:16:44;101071.59;;;-4.93;75.26
67842;BME280;54642;59.126;37.876;2022-12-17T15:19:10;101049.72;;;-5.04;75.35
67842;BME280;54642;59.126;37.876;2022-12-17T15:21:38;101057.63;;;-5.00;75.31
67842;BME280;54642;59.126;37.876;2022-12-17T15:24:05;101062.44;;;-5.03;75.21
67842;BME280;54642;59.126;37.876;2022-12-17T15:26:31;101035.38;;;-5.15;75.05
67842;BME280;54642;59.126;37.876;2022-12-17T15:28:57;101077.63;;;-4.91;75.46
67842;BME280;54642;59.126;37.876;2022-12-17T15:31:24;101053.22;;;-5.02;75.26
67842;BME280;54642;59.126;37.876;2022-12-17T15:33:50;101068.06;;;-4.95;75.31
67842;BME280;54642;59.126;37.876;2022-12-17T15:36:19;101008.56;;;-5.25;75.27
67842;BME280;54642;59.126;37.876;2022-12-17T15:38:45;101053.34;;;-5.01;75.24
67842;BME280;54642;59.126;37.876;2022-12-17T15:41:11;101053.44;;;-4.99;75.54
67842;BME280;54642;59.126;37.876;2022-12-17T15:43:55;101011.84;;;-5.26;75.19
67842;BME280;54642;59.126;37.876;2022-12-17T15:46:21;101041.53;;;-5.12;75.26
67842;BME280;54642;59.126;37.876;2022-12-17T15:48:48;101047.94;;;-5.05;75.33